Time;durP1;ratioP1;P1;durP2;ratioP2;P2;SDS_P1;SDS_P2;PMS_P1;PMS_P2;Temp;Humidity;BMP_temperature;BMP_pressure;BME280_temperature;BME280_humidity;BME280_pressure;Samples;Min_cycle;Max_cycle;Signal;HPM_P1;HPM_P2
2022/04/26 03:37:17;;;;;;;;;;;;;;;26.99;27.38;100333.56;5078411;28;620;-35
2022/04/26 03:39:42;;;;;;;;;;;;;;;26.82;27.38;100334.84;5078661;28;850;-35
2022/04/26 03:42:08;;;;;;;;;;;;;;;26.72;27.26;100341.41;5079143;28;746;-33
2022/04/26 03:44:33;;;;;;;;;;;;;;;26.53;27.25;100340.97;5078542;28;754;-34
2022/04/26 03:46:59;;;;;;;;;;;;;;;26.22;27.24;100338.47;5092768;28;1277;-35
2022/04/26 03:49:24;;;;;;;;;;;;;;;25.91;27.63;100340.31;5097844;28;1229;-36
2022/04/26 03:51:52;;;;;;;;;;;;;;;25.73;28.19;100330.75;5097798;28;1289;-32
2022/04/26 03:54:18;;;;;;;;;;;;;;;25.80;28.13;100330.84;5097147;28;1254;-32
2022/04/26 03:56:43;;;;;;;;;;;;;;;25.97;28.63;100339.59;5078674;28;1965;-34
2022/04/26 03:59:08;;;;;;;;;;;;;;;26.00;28.16;100341.06;5079863;28;1185;-31
2022/04/26 04:01:33;;;;;;;;;;;;;;;25.88;28.52;100346.06;5076937;28;1009;-33
2022/04/26 04:03:59;;;;;;;;;;;;;;;25.89;28.41;100343.19;5077268;28;800;-33
2022/04/26 04:06:24;;;;;;;;;;;;;;;25.89;28.47;100350.47;5077936;28;801;-31
2022/04/26 04:08:49;;;;;;;;;;;;;;;25.45;28.00;100342.09;5077572;28;900;-36
2022/04/26 04:11:15;;;;;;;;;;;;;;;25.16;28.49;100349.03;5076883;28;1441;-34
2022/04/26 04:13:40;;;;;;;;;;;;;;;25.43;29.22;100352.19;5077816;28;893;-32
2022/04/26 04:16:05;;;;;;;;;;;;;;;25.55;28.73;100347.22;5077549;28;1953;-37
2022/04/26 04:21:15;;;;;;;;;;;;;;;26.09;27.79;100350.72;5076906;28;765;-33
2022/04/26 04:23:40;;;;;;;;;;;;;;;26.48;28.04;100356.03;5068703;28;1182;-32
2022/04/26 04:26:05;;;;;;;;;;;;;;;26.59;27.96;100349.34;5075718;28;846;-33
2022/04/26 04:28:31;;;;;;;;;;;;;;;26.53;28.48;100353.59;5077453;28;962;-35
2022/04/26 04:30:56;;;;;;;;;;;;;;;26.71;28.39;100376.66;5076336;28;1013;-33
2022/04/26 04:33:22;;;;;;;;;;;;;;;26.04;30.28;100372.84;5076991;28;794;-34
2022/04/26 04:35:47;;;;;;;;;;;;;;;25.60;31.25;100378.97;5077535;28;1949;-36
2022/04/26 04:38:12;;;;;;;;;;;;;;;25.56;31.14;100386.56;5076685;28;889;-35
2022/04/26 04:40:38;;;;;;;;;;;;;;;25.44;31.19;100386.19;5077347;28;855;-34
2022/04/26 04:43:03;;;;;;;;;;;;;;;25.36;31.54;100387.06;5076966;28;1044;-34
2022/04/26 04:45:29;;;;;;;;;;;;;;;25.27;31.50;100396.25;5076557;28;814;-33
2022/04/26 04:47:54;;;;;;;;;;;;;;;25.16;31.94;100397.47;5077264;28;828;-31
2022/04/26 04:50:19;;;;;;;;;;;;;;;25.31;31.71;100401.09;5077317;28;901;-33
2022/04/26 04:52:45;;;;;;;;;;;;;;;24.96;32.44;100386.34;5076048;28;848;-34
2022/04/26 04:55:11;;;;;;;;;;;;;;;24.81;32.58;100393.28;5076610;28;1941;-33
2022/04/26 04:57:36;;;;;;;;;;;;;;;24.83;32.63;100396.63;5077126;28;747;-33
2022/04/26 05:00:02;;;;;;;;;;;;;;;24.88;32.32;100404.19;5076421;28;1080;-37
2022/04/26 05:02:27;;;;;;;;;;;;;;;24.79;33.26;100407.94;5074795;28;1179;-34
2022/04/26 05:04:52;;;;;;;;;;;;;;;25.54;32.66;100418.25;5071606;28;1211;-32
2022/04/26 05:07:18;;;;;;;;;;;;;;;26.09;32.81;100428.09;5077230;28;825;-37
2022/04/26 05:09:43;;;;;;;;;;;;;;;26.28;32.20;100418.59;5071969;28;1088;-35
2022/04/26 05:12:09;;;;;;;;;;;;;;;26.46;30.92;100430.94;5070419;28;1072;-35
2022/04/26 05:14:35;;;;;;;;;;;;;;;26.52;30.69;100431.03;5074982;28;1057;-34
2022/04/26 05:17:00;;;;;;;;;;;;;;;26.15;27.58;100433.56;5076115;28;1938;-37
2022/04/26 05:19:25;;;;;;;;;;;;;;;25.90;28.82;100447.28;5076192;28;961;-36
2022/04/26 05:21:51;;;;;;;;;;;;;;;26.03;29.18;100459.28;5076667;28;734;-33
2022/04/26 05:26:59;;;;;;;;;;;;;;;25.71;25.23;100467.47;5068611;28;1088;-35
2022/04/26 05:29:25;;;;;;;;;;;;;;;25.73;25.41;100453.81;5074762;28;765;-36
2022/04/26 05:31:50;;;;;;;;;;;;;;;25.78;27.07;100460.34;5075543;28;663;-35
2022/04/26 05:34:15;;;;;;;;;;;;;;;25.86;27.02;100466.69;5075484;28;1072;-33
2022/04/26 05:36:41;;;;;;;;;;;;;;;26.32;27.08;100465.75;5075135;28;1905;-39
2022/04/26 05:39:06;;;;;;;;;;;;;;;26.30;27.12;100446.22;5075579;28;831;-34
2022/04/26 05:41:31;;;;;;;;;;;;;;;26.56;28.73;100427.94;5076274;28;825;-37
2022/04/26 05:43:56;;;;;;;;;;;;;;;26.95;28.95;100431.31;5075974;28;848;-34
2022/04/26 05:46:22;;;;;;;;;;;;;;;26.67;29.61;100422.06;5075565;28;828;-30
2022/04/26 05:48:47;;;;;;;;;;;;;;;26.16;30.53;100402.03;5076194;28;894;-35
2022/04/26 05:51:12;;;;;;;;;;;;;;;26.58;29.83;100397.03;5076575;28;867;-34
2022/04/26 05:53:38;;;;;;;;;;;;;;;26.75;29.44;100411.16;5075190;28;891;-35
2022/04/26 05:56:05;;;;;;;;;;;;;;;26.78;29.41;100412.66;5075730;28;1898;-33
2022/04/26 05:58:30;;;;;;;;;;;;;;;27.05;30.10;100452.63;5076557;28;826;-32
2022/04/26 06:00:56;;;;;;;;;;;;;;;27.33;29.08;100451.91;5069053;28;1135;-34
2022/04/26 06:03:21;;;;;;;;;;;;;;;26.86;29.23;100457.59;5076444;28;802;-35
2022/04/26 06:05:46;;;;;;;;;;;;;;;26.72;29.68;100456.56;5075996;28;897;-32
2022/04/26 06:08:12;;;;;;;;;;;;;;;26.16;30.28;100462.19;5074931;28;845;-34
2022/04/26 06:10:37;;;;;;;;;;;;;;;25.90;30.12;100470.69;5075335;28;1609;-31
2022/04/26 06:13:02;;;;;;;;;;;;;;;25.66;30.07;100491.41;5075768;28;837;-31
2022/04/26 06:15:28;;;;;;;;;;;;;;;25.31;31.01;100486.38;5075680;28;1961;-31
2022/04/26 06:17:53;;;;;;;;;;;;;;;25.18;30.88;100495.03;5075887;28;1139;-32
2022/04/26 06:20:20;;;;;;;;;;;;;;;25.30;30.05;100501.72;5076159;28;829;-31
2022/04/26 06:22:46;;;;;;;;;;;;;;;25.38;30.59;100516.13;5075628;28;774;-32
2022/04/26 06:25:11;;;;;;;;;;;;;;;25.40;30.77;100514.97;5075543;28;1056;-31
2022/04/26 06:27:37;;;;;;;;;;;;;;;25.31;31.39;100516.00;5075882;28;809;-30
2022/04/26 06:30:02;;;;;;;;;;;;;;;25.35;30.85;100520.03;5075272;28;928;-33
2022/04/26 06:32:27;;;;;;;;;;;;;;;25.38;31.07;100522.38;5075241;28;1337;-32
2022/04/26 06:34:53;;;;;;;;;;;;;;;25.66;30.83;100523.75;5074546;28;1957;-33
2022/04/26 06:37:18;;;;;;;;;;;;;;;25.69;30.90;100518.00;5074366;28;766;-38
2022/04/26 06:39:43;;;;;;;;;;;;;;;25.69;30.94;100504.53;5074640;28;1057;-34
2022/04/26 06:42:09;;;;;;;;;;;;;;;25.70;31.05;100497.28;5075750;28;814;-38
2022/04/26 06:44:34;;;;;;;;;;;;;;;25.69;31.69;100493.78;5075713;28;809;-36
2022/04/26 06:46:59;;;;;;;;;;;;;;;25.74;31.71;100482.44;5075208;28;1792;-35
2022/04/26 06:49:24;;;;;;;;;;;;;;;25.88;31.42;100480.81;5075939;28;988;-37
2022/04/26 06:51:50;;;;;;;;;;;;;;;25.82;31.78;100479.69;5075528;28;775;-37
2022/04/26 06:54:15;;;;;;;;;;;;;;;25.86;31.62;100483.69;5076137;28;990;-38
2022/04/26 06:56:40;;;;;;;;;;;;;;;25.84;31.78;100482.19;5079049;28;1902;-39
2022/04/26 06:59:06;;;;;;;;;;;;;;;26.03;31.47;100478.16;5078753;28;1000;-39
2022/04/26 07:01:31;;;;;;;;;;;;;;;26.17;31.35;100471.13;5099807;28;881;-36
2022/04/26 07:03:57;;;;;;;;;;;;;;;26.12;31.50;100473.53;5099306;28;864;-38
2022/04/26 07:06:22;;;;;;;;;;;;;;;26.17;31.27;100473.81;5088801;28;1496;-38
2022/04/26 07:08:48;;;;;;;;;;;;;;;26.34;31.15;100477.22;5078969;28;943;-38
2022/04/26 07:11:15;;;;;;;;;;;;;;;26.31;30.72;100488.34;5078684;28;967;-34
2022/04/26 07:13:40;;;;;;;;;;;;;;;26.56;30.88;100485.41;5079171;28;821;-34
2022/04/26 07:16:06;;;;;;;;;;;;;;;26.52;31.11;100482.28;5075325;28;1963;-38
2022/04/26 07:18:32;;;;;;;;;;;;;;;26.44;31.54;100476.97;5080328;28;997;-39
2022/04/26 07:20:57;;;;;;;;;;;;;;;26.51;31.49;100485.13;5082077;28;923;-37
2022/04/26 07:23:22;;;;;;;;;;;;;;;26.55;31.52;100472.97;5071151;28;955;-38
2022/04/26 07:25:48;;;;;;;;;;;;;;;26.20;31.76;100473.47;5098561;28;824;-35
2022/04/26 07:28:13;;;;;;;;;;;;;;;25.74;33.87;100459.03;5094925;28;1087;-34
2022/04/26 07:30:39;;;;;;;;;;;;;;;25.33;34.98;100440.44;5077982;28;1298;-31
2022/04/26 07:35:48;;;;;;;;;;;;;;;25.96;33.41;100423.31;5078294;28;1898;-34
2022/04/26 07:38:14;;;;;;;;;;;;;;;26.22;32.24;100422.88;5080755;28;847;-38
2022/04/26 07:40:39;;;;;;;;;;;;;;;26.30;32.34;100457.00;5070096;28;1203;-36
2022/04/26 07:43:05;;;;;;;;;;;;;;;26.32;32.25;100473.00;5073170;28;1294;-33
2022/04/26 07:45:31;;;;;;;;;;;;;;;26.38;31.88;100483.91;5069860;28;1219;-32
2022/04/26 07:47:56;;;;;;;;;;;;;;;26.50;31.80;100497.78;5067360;28;1259;-33
2022/04/26 07:50:21;;;;;;;;;;;;;;;26.80;31.36;100515.00;5048893;28;1389;-36
2022/04/26 07:52:47;;;;;;;;;;;;;;;26.98;31.73;100523.56;5068236;28;1255;-35
2022/04/26 07:55:12;;;;;;;;;;;;;;;26.94;30.86;100516.88;5082006;28;1889;-34
2022/04/26 07:57:39;;;;;;;;;;;;;;;26.98;30.88;100520.00;5073953;28;1401;-32
2022/04/26 08:00:05;;;;;;;;;;;;;;;27.28;31.32;100528.09;5085340;28;1306;-33
2022/04/26 08:02:30;;;;;;;;;;;;;;;27.53;30.50;100526.94;5094625;28;1486;-32
2022/04/26 08:05:01;;;;;;;;;;;;;;;27.28;31.02;100520.00;5088812;28;1297;-35
2022/04/26 08:07:26;;;;;;;;;;;;;;;27.36;31.40;100543.38;5089904;28;1195;-36
2022/04/26 08:09:51;;;;;;;;;;;;;;;27.47;30.85;100548.28;5088224;28;1337;-33
2022/04/26 08:12:16;;;;;;;;;;;;;;;27.23;31.00;100541.31;5092127;28;1116;-31
2022/04/26 08:14:42;;;;;;;;;;;;;;;27.08;31.27;100542.19;5093557;28;1139;-35
2022/04/26 08:17:07;;;;;;;;;;;;;;;27.10;31.06;100542.00;5096390;28;1964;-33
2022/04/26 08:19:32;;;;;;;;;;;;;;;27.23;30.85;100549.44;5093721;28;1190;-32
2022/04/26 08:21:58;;;;;;;;;;;;;;;27.19;30.96;100546.28;5096394;28;1234;-32
2022/04/26 08:27:23;;;;;;;;;;;;;;;27.64;30.48;100542.63;5088469;28;1365;-34
2022/04/26 08:29:48;;;;;;;;;;;;;;;27.57;30.41;100531.75;5085080;28;1408;-33
2022/04/26 08:32:14;;;;;;;;;;;;;;;27.67;30.26;100533.31;5091636;28;1183;-33
2022/04/26 08:34:40;;;;;;;;;;;;;;;27.66;30.29;100527.03;5091287;28;1266;-31
2022/04/26 08:37:05;;;;;;;;;;;;;;;27.60;30.13;100534.06;5091945;28;1974;-34
2022/04/26 08:39:30;;;;;;;;;;;;;;;27.63;30.27;100520.19;5094794;28;1071;-34
2022/04/26 08:41:59;;;;;;;;;;;;;;;27.58;30.41;100516.38;5093226;28;1372;-30
2022/04/26 08:44:27;;;;;;;;;;;;;;;27.55;30.22;100525.69;5095465;28;1199;-35
2022/04/26 08:52:24;;;;;;;;;;;;;;;27.58;30.35;100559.59;5094648;28;1375;-32
2022/04/26 08:54:49;;;;;;;;;;;;;;;27.73;29.98;100546.91;5096905;28;836;-36
2022/04/26 08:57:15;;;;;;;;;;;;;;;27.74;29.94;100545.06;5096217;28;1961;-30
2022/04/26 08:59:46;;;;;;;;;;;;;;;27.86;29.43;100548.91;5093163;28;1274;-30
2022/04/26 09:02:19;;;;;;;;;;;;;;;27.71;30.10;100561.66;5093227;28;1408;-33
2022/04/26 09:04:59;;;;;;;;;;;;;;;27.74;30.08;100566.69;5096148;28;1473;-32
2022/04/26 09:07:28;;;;;;;;;;;;;;;27.71;30.10;100567.06;5094877;28;1305;-32
2022/04/26 09:10:12;;;;;;;;;;;;;;;27.66;29.90;100562.19;5096339;28;1285;-31
2022/04/26 09:12:56;;;;;;;;;;;;;;;27.57;30.00;100560.63;5096946;28;818;-31
2022/04/26 09:15:21;;;;;;;;;;;;;;;27.59;29.92;100564.00;5096368;28;1965;-33
2022/04/26 09:17:47;;;;;;;;;;;;;;;27.56;29.95;100575.19;5096430;28;1260;-32
2022/04/26 09:20:12;;;;;;;;;;;;;;;27.58;30.22;100568.53;5096559;28;887;-31
2022/04/26 09:22:39;;;;;;;;;;;;;;;27.76;29.89;100570.00;5096677;28;854;-32
2022/04/26 09:25:05;;;;;;;;;;;;;;;27.85;29.60;100571.56;5096427;28;1068;-30
2022/04/26 09:27:34;;;;;;;;;;;;;;;27.87;29.55;100568.66;5097157;28;845;-32
2022/04/26 09:29:59;;;;;;;;;;;;;;;27.83;29.51;100580.88;5077388;28;1564;-30
2022/04/26 09:32:24;;;;;;;;;;;;;;;27.73;29.63;100570.38;5092135;28;965;-34
2022/04/26 09:34:50;;;;;;;;;;;;;;;27.67;29.59;100546.81;5092673;28;1305;-33
2022/04/26 09:37:16;;;;;;;;;;;;;;;27.62;29.87;100540.13;5086436;28;1957;-30
2022/04/26 09:39:58;;;;;;;;;;;;;;;27.30;30.62;100550.34;5095371;28;1266;-35
2022/04/26 09:42:30;;;;;;;;;;;;;;;27.23;30.54;100568.34;5096227;28;809;-33
2022/04/26 09:45:02;;;;;;;;;;;;;;;27.47;30.58;100588.81;5096293;28;792;-32
2022/04/26 09:47:37;;;;;;;;;;;;;;;27.63;30.22;100582.31;5096496;28;737;-31
2022/04/26 09:50:06;;;;;;;;;;;;;;;27.83;30.12;100572.78;5095639;28;784;-32
2022/04/26 09:52:31;;;;;;;;;;;;;;;28.07;29.48;100546.38;5095936;28;1096;-32
2022/04/26 09:55:00;;;;;;;;;;;;;;;28.13;29.65;100537.50;5095911;28;1906;-30
2022/04/26 09:57:25;;;;;;;;;;;;;;;28.17;29.34;100544.19;5095750;28;1033;-33
2022/04/26 09:59:51;;;;;;;;;;;;;;;27.93;29.86;100543.56;5078274;28;1199;-34
2022/04/26 10:02:16;;;;;;;;;;;;;;;28.02;29.51;100529.91;5078413;28;870;-31
2022/04/26 10:04:46;;;;;;;;;;;;;;;27.95;29.89;100554.19;5078054;28;837;-33
2022/04/26 10:07:12;;;;;;;;;;;;;;;27.93;30.64;100562.50;5077810;28;1235;-31
2022/04/26 10:09:37;;;;;;;;;;;;;;;28.06;30.81;100567.19;5095180;28;1242;-34
2022/04/26 10:12:03;;;;;;;;;;;;;;;27.50;30.24;100453.34;5083513;28;1302;-34
2022/04/26 10:14:28;;;;;;;;;;;;;;;28.09;30.39;100558.66;5091632;28;1070;-35
2022/04/26 10:16:53;;;;;;;;;;;;;;;27.99;30.14;100553.59;5087138;28;1979;-36
2022/04/26 10:19:19;;;;;;;;;;;;;;;28.13;30.61;100550.19;5064748;28;1376;-35
2022/04/26 10:21:46;;;;;;;;;;;;;;;28.45;30.48;100539.84;5088556;28;1298;-37
2022/04/26 10:24:12;;;;;;;;;;;;;;;28.43;29.89;100553.56;5094060;28;1041;-36
2022/04/26 10:26:37;;;;;;;;;;;;;;;28.54;29.99;100557.63;5093977;28;1040;-32
2022/04/26 10:29:09;;;;;;;;;;;;;;;28.66;29.82;100552.47;5097659;28;789;-34
2022/04/26 10:31:40;;;;;;;;;;;;;;;28.71;29.86;100563.53;5091208;28;1390;-31
2022/04/26 10:34:16;;;;;;;;;;;;;;;28.67;29.57;100551.47;5099719;28;818;-32
2022/04/26 10:36:41;;;;;;;;;;;;;;;28.52;29.73;100556.13;5098706;28;1897;-32
2022/04/26 10:39:09;;;;;;;;;;;;;;;28.50;29.65;100547.38;5094415;28;1187;-34
2022/04/26 10:41:35;;;;;;;;;;;;;;;28.73;29.35;100538.97;5099547;28;916;-35
2022/04/26 10:44:12;;;;;;;;;;;;;;;28.80;29.64;100542.56;5099817;28;897;-35
2022/04/26 10:46:38;;;;;;;;;;;;;;;29.01;29.26;100545.41;5100064;28;841;-32
2022/04/26 10:49:24;;;;;;;;;;;;;;;28.95;29.13;100549.72;5099179;28;899;-34
2022/04/26 10:51:53;;;;;;;;;;;;;;;28.88;29.13;100541.56;5097853;28;1258;-34
2022/04/26 10:54:37;;;;;;;;;;;;;;;29.08;28.84;100549.81;5098295;28;997;-37
2022/04/26 10:57:02;;;;;;;;;;;;;;;29.01;28.80;100540.81;5098353;28;1882;-32
2022/04/26 10:59:27;;;;;;;;;;;;;;;29.01;28.84;100546.22;5098445;28;1222;-35
2022/04/26 11:01:54;;;;;;;;;;;;;;;29.11;28.76;100550.47;5095664;28;1265;-33
2022/04/26 11:04:19;;;;;;;;;;;;;;;29.11;28.57;100547.75;5079716;28;1265;-35
2022/04/26 11:06:44;;;;;;;;;;;;;;;28.97;28.62;100553.09;5098459;28;1170;-30
2022/04/26 11:09:10;;;;;;;;;;;;;;;29.05;28.41;100552.94;5097297;28;1306;-35
2022/04/26 11:11:48;;;;;;;;;;;;;;;29.18;28.58;100554.03;5097384;28;1258;-34
2022/04/26 11:14:15;;;;;;;;;;;;;;;29.14;28.58;100544.63;5093819;28;1249;-34
2022/04/26 11:16:54;;;;;;;;;;;;;;;28.81;28.54;100546.13;5091526;28;1917;-33
2022/04/26 11:19:30;;;;;;;;;;;;;;;28.71;28.54;100549.19;5099256;28;731;-31
2022/04/26 11:21:56;;;;;;;;;;;;;;;28.89;27.53;100561.34;5099904;28;821;-32
2022/04/26 11:29:52;;;;;;;;;;;;;;;28.83;28.01;100533.19;5098130;28;1170;-32
2022/04/26 11:32:54;;;;;;;;;;;;;;;29.00;27.76;100533.75;5098840;28;1309;-31
2022/04/26 11:35:20;;;;;;;;;;;;;;;28.96;28.25;100541.41;5098791;28;1889;-33
2022/04/26 11:37:49;;;;;;;;;;;;;;;28.98;28.58;100535.00;5098566;28;861;-31
2022/04/26 11:40:25;;;;;;;;;;;;;;;29.07;27.76;100531.91;5097552;28;797;-31
2022/04/26 11:42:50;;;;;;;;;;;;;;;29.01;28.27;100526.47;5098525;28;1451;-31
2022/04/26 11:45:15;;;;;;;;;;;;;;;28.95;28.56;100528.06;5098290;28;824;-33
2022/04/26 11:47:45;;;;;;;;;;;;;;;29.09;27.89;100537.94;5098487;28;884;-34
2022/04/26 11:50:10;;;;;;;;;;;;;;;29.12;27.73;100538.59;5097880;28;1270;-36
2022/04/26 11:52:35;;;;;;;;;;;;;;;29.21;27.67;100540.91;5095535;28;1092;-36
2022/04/26 11:55:00;;;;;;;;;;;;;;;29.26;27.38;100537.59;5095931;28;1013;-33
2022/04/26 11:57:26;;;;;;;;;;;;;;;29.12;27.45;100534.00;5090821;28;2043;-37
2022/04/26 11:59:51;;;;;;;;;;;;;;;28.98;26.47;100522.28;5089486;28;1265;-33
2022/04/26 12:02:16;;;;;;;;;;;;;;;28.93;26.30;100522.84;5078564;28;1249;-34
2022/04/26 12:04:42;;;;;;;;;;;;;;;29.08;26.78;100517.31;5068696;28;935;-34
2022/04/26 12:07:07;;;;;;;;;;;;;;;29.19;26.61;100506.94;5094439;28;1261;-32
2022/04/26 12:09:33;;;;;;;;;;;;;;;29.21;26.87;100504.88;5097899;28;842;-36
2022/04/26 12:12:02;;;;;;;;;;;;;;;29.18;26.76;100513.38;5097920;28;763;-34
2022/04/26 12:14:27;;;;;;;;;;;;;;;29.22;26.80;100511.97;5094730;28;1433;-35
2022/04/26 12:16:55;;;;;;;;;;;;;;;29.28;26.90;100516.56;5092259;28;1906;-34
2022/04/26 12:19:41;;;;;;;;;;;;;;;29.35;26.58;100524.69;5092662;28;1080;-37
2022/04/26 12:22:07;;;;;;;;;;;;;;;29.15;26.97;100519.22;5089373;28;1203;-32
2022/04/26 12:24:44;;;;;;;;;;;;;;;29.32;26.63;100514.28;5092744;28;1586;-30
2022/04/26 12:27:13;;;;;;;;;;;;;;;29.21;27.18;100515.72;5095893;28;1345;-31
2022/04/26 12:29:42;;;;;;;;;;;;;;;29.18;26.86;100524.22;5092197;28;1255;-33
2022/04/26 12:32:08;;;;;;;;;;;;;;;29.21;26.94;100524.66;5083555;28;1175;-35
2022/04/26 12:34:33;;;;;;;;;;;;;;;29.16;27.16;100518.19;5077463;28;802;-33
2022/04/26 12:37:02;;;;;;;;;;;;;;;29.43;27.03;100518.25;5077310;28;1905;-30
2022/04/26 12:39:48;;;;;;;;;;;;;;;29.54;26.97;100520.41;5088895;28;1140;-35
2022/04/26 12:42:15;;;;;;;;;;;;;;;29.41;26.28;100512.22;5093613;28;1411;-30
2022/04/26 12:44:56;;;;;;;;;;;;;;;29.45;25.96;100508.91;5091261;28;1313;-37
2022/04/26 12:52:53;;;;;;;;;;;;;;;28.89;26.25;100512.63;5078564;28;1187;-35
2022/04/26 12:55:38;;;;;;;;;;;;;;;29.18;25.74;100497.97;5090263;28;1906;-35
2022/04/26 12:58:06;;;;;;;;;;;;;;;29.43;25.72;100500.13;5087097;28;1594;-34
2022/04/26 13:00:31;;;;;;;;;;;;;;;26.88;26.25;100498.72;5095296;28;1656;-31
2022/04/26 13:02:58;;;;;;;;;;;;;;;25.94;27.58;100496.28;5093038;28;1496;-31
2022/04/26 13:05:24;;;;;;;;;;;;;;;27.69;25.83;100493.44;5096991;28;750;-31
2022/04/26 13:07:49;;;;;;;;;;;;;;;28.63;24.96;100497.94;5093149;28;907;-34
2022/04/26 13:10:15;;;;;;;;;;;;;;;28.96;25.06;100498.06;5095504;28;770;-33
2022/04/26 13:12:40;;;;;;;;;;;;;;;28.91;25.21;100495.13;5082507;28;1214;-29
2022/04/26 13:15:08;;;;;;;;;;;;;;;28.86;25.06;100489.50;5092217;28;1902;-30
2022/04/26 13:17:33;;;;;;;;;;;;;;;28.90;25.13;100493.47;5079711;28;1258;-33
2022/04/26 13:19:58;;;;;;;;;;;;;;;28.87;25.07;100493.88;5081621;28;1270;-30
2022/04/26 13:22:24;;;;;;;;;;;;;;;28.52;25.51;100496.59;5092669;28;1211;-33
2022/04/26 13:24:51;;;;;;;;;;;;;;;28.72;25.22;100480.47;5096173;28;840;-30
2022/04/26 13:27:18;;;;;;;;;;;;;;;28.84;25.05;100489.69;5096370;28;853;-30
2022/04/26 13:29:43;;;;;;;;;;;;;;;28.63;24.96;100490.63;5097000;28;767;-30
2022/04/26 13:32:08;;;;;;;;;;;;;;;28.73;25.10;100493.81;5095509;28;1269;-33
2022/04/26 13:34:34;;;;;;;;;;;;;;;28.88;24.76;100490.13;5091917;28;1285;-34
2022/04/26 13:36:59;;;;;;;;;;;;;;;29.02;25.02;100495.63;5096448;28;1956;-31
2022/04/26 13:39:24;;;;;;;;;;;;;;;29.01;25.05;100488.56;5095391;28;1124;-30
2022/04/26 13:41:52;;;;;;;;;;;;;;;28.80;25.35;100490.28;5076223;28;921;-32
2022/04/26 13:44:19;;;;;;;;;;;;;;;28.76;24.52;100481.72;5076013;28;820;-34
2022/04/26 13:46:45;;;;;;;;;;;;;;;28.48;25.16;100486.19;5086491;28;877;-34
2022/04/26 13:49:11;;;;;;;;;;;;;;;28.54;24.74;100489.97;5096630;28;1034;-32
2022/04/26 13:51:36;;;;;;;;;;;;;;;28.77;24.46;100485.28;5096414;28;745;-31
2022/04/26 13:54:01;;;;;;;;;;;;;;;28.71;24.47;100490.47;5095932;28;894;-32
2022/04/26 13:56:26;;;;;;;;;;;;;;;28.71;24.45;100492.34;5095871;28;1953;-37
2022/04/26 13:58:52;;;;;;;;;;;;;;;28.62;24.45;100485.41;5096079;28;907;-32
2022/04/26 14:01:17;;;;;;;;;;;;;;;28.64;24.49;100497.72;5083671;28;1095;-30
2022/04/26 14:03:42;;;;;;;;;;;;;;;28.71;24.37;100493.16;5068888;28;1104;-31
2022/04/26 14:06:10;;;;;;;;;;;;;;;28.83;24.49;100493.44;5075577;28;1269;-32
2022/04/26 14:08:36;;;;;;;;;;;;;;;28.71;24.92;100495.06;5079786;28;1028;-30
2022/04/26 14:11:02;;;;;;;;;;;;;;;28.72;24.94;100492.16;5060852;28;1198;-34
2022/04/26 14:13:27;;;;;;;;;;;;;;;28.93;24.59;100490.34;5076443;28;1261;-35
2022/04/26 14:24:06;;;;;;;;;;;;;;;28.66;24.27;100505.66;5066136;28;956;-33
2022/04/26 14:26:31;;;;;;;;;;;;;;;28.56;24.41;100508.72;5088594;28;1088;-34
2022/04/26 14:28:56;;;;;;;;;;;;;;;28.47;23.88;100502.63;5055001;28;1107;-34
2022/04/26 14:31:22;;;;;;;;;;;;;;;28.56;24.05;100503.31;5054888;28;1076;-33
2022/04/26 14:33:47;;;;;;;;;;;;;;;28.43;24.36;100504.88;5083495;28;1135;-33
2022/04/26 14:36:12;;;;;;;;;;;;;;;28.68;24.30;100511.66;5095962;28;1953;-33
2022/04/26 14:38:37;;;;;;;;;;;;;;;28.75;24.71;100509.00;5082070;28;856;-31
2022/04/26 14:41:03;;;;;;;;;;;;;;;28.82;24.43;100508.03;5075245;28;1610;-30
2022/04/26 14:43:28;;;;;;;;;;;;;;;28.67;24.76;100505.44;5075191;28;779;-33
2022/04/26 14:45:55;;;;;;;;;;;;;;;28.53;24.97;100504.53;5074418;28;1576;-34
2022/04/26 14:48:20;;;;;;;;;;;;;;;28.56;24.63;100500.59;5074254;28;955;-33
2022/04/26 14:50:45;;;;;;;;;;;;;;;28.47;24.99;100505.31;5087053;28;931;-30
2022/04/26 14:53:11;;;;;;;;;;;;;;;28.50;24.47;100512.19;5075521;28;1041;-36
2022/04/26 14:55:36;;;;;;;;;;;;;;;28.35;24.83;100515.84;5074047;28;1959;-30
2022/04/26 14:58:02;;;;;;;;;;;;;;;28.24;25.24;100509.91;5073878;28;1136;-33
2022/04/26 15:00:27;;;;;;;;;;;;;;;28.13;25.57;100512.34;5085637;28;1286;-35
2022/04/26 15:02:52;;;;;;;;;;;;;;;28.16;25.30;100501.94;5084578;28;838;-32
2022/04/26 15:05:18;;;;;;;;;;;;;;;28.16;25.64;100501.13;5095466;28;817;-35
2022/04/26 15:10:28;;;;;;;;;;;;;;;28.45;25.02;100510.09;5075685;28;595;-35
2022/04/26 15:18:21;;;;;;;;;;;;;;;28.42;24.95;100513.19;5099040;28;600;-32
2022/04/26 15:20:52;;;;;;;;;;;;;;;28.42;24.72;100515.91;5099172;28;778;-31
2022/04/26 15:23:17;;;;;;;;;;;;;;;28.23;24.33;100512.81;5096794;28;1285;-34
2022/04/26 15:25:50;;;;;;;;;;;;;;;28.29;24.52;100506.63;5081475;28;1027;-32
2022/04/26 15:28:15;;;;;;;;;;;;;;;28.17;24.65;100522.56;5094857;28;905;-34
2022/04/26 15:30:42;;;;;;;;;;;;;;;28.15;25.33;100516.50;5096920;28;859;-36
2022/04/26 15:33:07;;;;;;;;;;;;;;;28.16;25.03;100515.47;5096774;28;830;-36
2022/04/26 15:35:32;;;;;;;;;;;;;;;28.03;25.40;100512.69;5097240;28;1897;-36
2022/04/26 15:37:58;;;;;;;;;;;;;;;27.42;24.98;100517.44;5098514;28;1048;-35
2022/04/26 15:40:23;;;;;;;;;;;;;;;27.05;25.49;100503.94;5098126;28;840;-33
2022/04/26 15:42:48;;;;;;;;;;;;;;;26.98;25.82;100506.50;5098861;28;774;-31
2022/04/26 15:45:14;;;;;;;;;;;;;;;26.80;26.29;100513.16;5098426;28;1040;-34
2022/04/26 15:47:39;;;;;;;;;;;;;;;26.71;26.61;100517.78;5098677;28;825;-30
2022/04/26 15:50:05;;;;;;;;;;;;;;;26.57;26.44;100513.22;5099016;28;864;-34
2022/04/26 15:52:30;;;;;;;;;;;;;;;26.19;27.03;100506.84;5093324;28;1195;-32
2022/04/26 15:54:55;;;;;;;;;;;;;;;26.23;27.23;100515.38;5094902;28;820;-33
2022/04/26 15:57:21;;;;;;;;;;;;;;;26.95;26.71;100513.13;5098361;28;1963;-31
2022/04/26 15:59:46;;;;;;;;;;;;;;;27.14;25.99;100514.44;5097743;28;1056;-36
2022/04/26 16:02:11;;;;;;;;;;;;;;;27.28;26.01;100514.59;5097427;28;761;-32
2022/04/26 16:04:37;;;;;;;;;;;;;;;27.31;25.96;100510.69;5098702;28;821;-37
2022/04/26 16:07:02;;;;;;;;;;;;;;;27.24;25.88;100518.72;5086085;28;896;-36
2022/04/26 16:20:37;;;;;;;;;;;;;;;27.29;25.55;100528.94;5078437;28;836;-35
2022/04/26 16:23:04;;;;;;;;;;;;;;;27.33;25.41;100525.66;5080411;28;884;-37
2022/04/26 16:25:30;;;;;;;;;;;;;;;27.31;25.83;100529.59;5098605;28;777;-37
2022/04/26 16:27:55;;;;;;;;;;;;;;;27.21;25.91;100530.72;5097491;28;817;-35
2022/04/26 16:30:20;;;;;;;;;;;;;;;27.18;25.84;100535.66;5097496;28;750;-36
2022/04/26 16:32:46;;;;;;;;;;;;;;;27.18;25.98;100538.34;5083597;28;883;-32
2022/04/26 16:35:11;;;;;;;;;;;;;;;27.25;25.96;100542.81;5077400;28;834;-35
2022/04/26 16:37:37;;;;;;;;;;;;;;;27.17;25.80;100544.78;5076932;28;1955;-36
2022/04/26 16:40:02;;;;;;;;;;;;;;;27.20;25.86;100550.66;5094762;28;983;-37
2022/04/26 16:42:29;;;;;;;;;;;;;;;26.97;26.15;100543.50;5097291;28;920;-34
2022/04/26 16:44:55;;;;;;;;;;;;;;;27.12;25.99;100554.31;5097006;28;978;-37
2022/04/26 16:47:20;;;;;;;;;;;;;;;27.24;25.87;100560.03;5097742;28;758;-34
2022/04/26 16:49:46;;;;;;;;;;;;;;;27.13;26.14;100557.81;5097187;28;1232;-36
2022/04/26 16:52:12;;;;;;;;;;;;;;;27.19;25.86;100562.50;5097161;28;790;-36
2022/04/26 16:54:38;;;;;;;;;;;;;;;27.19;26.32;100565.19;5083270;28;1002;-35
2022/04/26 16:57:03;;;;;;;;;;;;;;;26.91;26.31;100563.09;5080373;28;1955;-35
2022/04/26 16:59:30;;;;;;;;;;;;;;;26.95;26.48;100566.28;5097221;28;1293;-33
2022/04/26 17:01:55;;;;;;;;;;;;;;;26.86;26.63;100562.84;5097001;28;861;-35
2022/04/26 17:04:22;;;;;;;;;;;;;;;26.80;26.77;100555.47;5096951;28;826;-34
2022/04/26 17:06:47;;;;;;;;;;;;;;;26.93;26.82;100574.56;5097086;28;750;-32
2022/04/26 17:09:12;;;;;;;;;;;;;;;26.83;27.34;100571.28;5086196;28;994;-35
2022/04/26 17:11:43;;;;;;;;;;;;;;;26.80;27.01;100571.66;5076014;28;961;-34
2022/04/26 17:14:09;;;;;;;;;;;;;;;26.82;27.06;100580.44;5076570;28;818;-34
2022/04/26 17:16:34;;;;;;;;;;;;;;;26.87;26.88;100589.66;5076212;28;1901;-33
2022/04/26 17:18:59;;;;;;;;;;;;;;;26.81;26.77;100584.16;5075939;28;1207;-32